sensor_id;sensor_type;location;lat;lon;timestamp;P1;P2;P0
78678;PMS5003;67994;59.334;13.528;2023-06-26T00:00:00;9.6;7.9;
78678;PMS5003;67994;59.334;13.528;2023-06-26T00:01:00;9.6;7.9;
78678;PMS5003;67994;59.334;13.528;2023-06-26T00:02:00;9.6;7.9;
78678;PMS5003;67994;59.334;13.528;2023-06-26T00:03:00;9.9;9.9;
78678;PMS5003;67994;59.334;13.528;2023-06-26T00:04:00;9.9;9.9;
78678;PMS5003;67994;59.334;13.528;2023-06-26T00:05:00;9.9;9.9;
78678;PMS5003;67994;59.334;13.528;2023-06-26T00:06:00;9.9;9.9;
78678;PMS5003;67994;59.334;13.528;2023-06-26T00:07:00;9.9;9.9;
78678;PMS5003;67994;59.334;13.528;2023-06-26T00:08:00;8.4;7.7;
78678;PMS5003;67994;59.334;13.528;2023-06-26T00:09:00;8.4;7.7;
78678;PMS5003;67994;59.334;13.528;2023-06-26T00:10:00;8.4;7.7;
78678;PMS5003;67994;59.334;13.528;2023-06-26T00:11:00;8.4;7.7;
78678;PMS5003;67994;59.334;13.528;2023-06-26T00:12:00;8.4;7.7;
78678;PMS5003;67994;59.334;13.528;2023-06-26T00:13:00;9.8;9.4;
78678;PMS5003;67994;59.334;13.528;2023-06-26T00:14:06;9.8;9.4;
78678;PMS5003;67994;59.334;13.528;2023-06-26T00:15:00;9.8;9.4;
78678;PMS5003;67994;59.334;13.528;2023-06-26T00:16:03;9.8;9.4;
78678;PMS5003;67994;59.334;13.528;2023-06-26T00:17:00;9.8;9.4;
78678;PMS5003;67994;59.334;13.528;2023-06-26T00:18:00;10.3;10.3;
78678;PMS5003;67994;59.334;13.528;2023-06-26T00:19:00;10.3;10.3;
78678;PMS5003;67994;59.334;13.528;2023-06-26T00:20:00;10.3;10.3;
78678;PMS5003;67994;59.334;13.528;2023-06-26T00:21:00;10.3;10.3;
78678;PMS5003;67994;59.334;13.528;2023-06-26T00:22:00;10.3;10.3;
78678;PMS5003;67994;59.334;13.528;2023-06-26T00:23:00;13.8;12.3;
78678;PMS5003;67994;59.334;13.528;2023-06-26T00:24:00;13.8;12.3;
78678;PMS5003;67994;59.334;13.528;2023-06-26T00:25:00;13.8;12.3;
78678;PMS5003;67994;59.334;13.528;2023-06-26T00:26:00;13.8;12.3;
78678;PMS5003;67994;59.334;13.528;2023-06-26T00:27:00;13.8;12.3;
78678;PMS5003;67994;59.334;13.528;2023-06-26T00:28:00;10.7;10.7;
78678;PMS5003;67994;59.334;13.528;2023-06-26T00:29:00;10.7;10.7;
78678;PMS5003;67994;59.334;13.528;2023-06-26T00:30:00;10.7;10.7;
78678;PMS5003;67994;59.334;13.528;2023-06-26T00:31:00;10.7;10.7;
78678;PMS5003;67994;59.334;13.528;2023-06-26T00:32:00;10.7;10.7;
78678;PMS5003;67994;59.334;13.528;2023-06-26T00:33:00;12.2;12.2;
78678;PMS5003;67994;59.334;13.528;2023-06-26T00:34:00;12.2;12.2;
78678;PMS5003;67994;59.334;13.528;2023-06-26T00:35:00;12.2;12.2;
78678;PMS5003;67994;59.334;13.528;2023-06-26T00:36:00;12.2;12.2;
78678;PMS5003;67994;59.334;13.528;2023-06-26T00:37:00;12.2;12.2;
78678;PMS5003;67994;59.334;13.528;2023-06-26T00:38:00;10.2;10.0;
78678;PMS5003;67994;59.334;13.528;2023-06-26T00:39:00;10.2;10.0;
78678;PMS5003;67994;59.334;13.528;2023-06-26T00:40:00;10.2;10.0;
78678;PMS5003;67994;59.334;13.528;2023-06-26T00:41:00;10.2;10.0;
78678;PMS5003;67994;59.334;13.528;2023-06-26T00:42:00;10.2;10.0;
78678;PMS5003;67994;59.334;13.528;2023-06-26T00:43:00;11.3;10.0;
78678;PMS5003;67994;59.334;13.528;2023-06-26T00:44:00;11.3;10.0;
78678;PMS5003;67994;59.334;13.528;2023-06-26T00:45:00;11.3;10.0;
78678;PMS5003;67994;59.334;13.528;2023-06-26T00:46:00;11.3;10.0;
78678;PMS5003;67994;59.334;13.528;2023-06-26T00:47:00;11.3;10.0;
78678;PMS5003;67994;59.334;13.528;2023-06-26T00:48:00;11.0;9.2;
78678;PMS5003;67994;59.334;13.528;2023-06-26T00:49:00;11.0;9.2;
78678;PMS5003;67994;59.334;13.528;2023-06-26T00:50:00;11.0;9.2;
78678;PMS5003;67994;59.334;13.528;2023-06-26T00:51:00;11.0;9.2;
78678;PMS5003;67994;59.334;13.528;2023-06-26T00:52:00;11.0;9.2;
78678;PMS5003;67994;59.334;13.528;2023-06-26T00:53:00;14.1;8.8;
78678;PMS5003;67994;59.334;13.528;2023-06-26T00:54:00;14.1;8.8;
78678;PMS5003;67994;59.334;13.528;2023-06-26T00:55:00;14.1;8.8;
78678;PMS5003;67994;59.334;13.528;2023-06-26T00:56:00;14.1;8.8;
78678;PMS5003;67994;59.334;13.528;2023-06-26T00:57:00;14.1;8.8;
78678;PMS5003;67994;59.334;13.528;2023-06-26T00:58:00;16.6;14.2;
78678;PMS5003;67994;59.334;13.528;2023-06-26T00:59:00;16.6;14.2;
78678;PMS5003;67994;59.334;13.528;2023-06-26T01:00:00;16.6;14.2;
78678;PMS5003;67994;59.334;13.528;2023-06-26T01:01:00;16.6;14.2;
78678;PMS5003;67994;59.334;13.528;2023-06-26T01:02:00;16.6;14.2;
78678;PMS5003;67994;59.334;13.528;2023-06-26T01:03:00;10.7;10.4;
78678;PMS5003;67994;59.334;13.528;2023-06-26T01:04:00;10.7;10.4;
78678;PMS5003;67994;59.334;13.528;2023-06-26T01:05:00;10.7;10.4;
78678;PMS5003;67994;59.334;13.528;2023-06-26T01:06:00;10.7;10.4;
78678;PMS5003;67994;59.334;13.528;2023-06-26T01:07:00;10.7;10.4;
78678;PMS5003;67994;59.334;13.528;2023-06-26T01:08:00;10.6;10.6;
78678;PMS5003;67994;59.334;13.528;2023-06-26T01:09:00;10.6;10.6;
78678;PMS5003;67994;59.334;13.528;2023-06-26T01:10:00;10.6;10.6;
78678;PMS5003;67994;59.334;13.528;2023-06-26T01:11:00;10.6;10.6;
78678;PMS5003;67994;59.334;13.528;2023-06-26T01:12:00;10.6;10.6;
78678;PMS5003;67994;59.334;13.528;2023-06-26T01:13:00;14.7;14.7;
78678;PMS5003;67994;59.334;13.528;2023-06-26T01:14:00;14.7;14.7;
78678;PMS5003;67994;59.334;13.528;2023-06-26T01:15:00;14.7;14.7;
78678;PMS5003;67994;59.334;13.528;2023-06-26T01:16:00;14.7;14.7;
78678;PMS5003;67994;59.334;13.528;2023-06-26T01:17:00;14.7;14.7;
78678;PMS5003;67994;59.334;13.528;2023-06-26T01:18:00;16.7;15.6;
78678;PMS5003;67994;59.334;13.528;2023-06-26T01:19:00;16.7;15.6;
78678;PMS5003;67994;59.334;13.528;2023-06-26T01:20:00;16.7;15.6;
78678;PMS5003;67994;59.334;13.528;2023-06-26T01:21:00;16.7;15.6;
78678;PMS5003;67994;59.334;13.528;2023-06-26T01:22:02;16.7;15.6;
78678;PMS5003;67994;59.334;13.528;2023-06-26T01:23:03;8.8;8.4;
78678;PMS5003;67994;59.334;13.528;2023-06-26T01:24:02;8.8;8.4;
78678;PMS5003;67994;59.334;13.528;2023-06-26T01:25:03;8.8;8.4;
78678;PMS5003;67994;59.334;13.528;2023-06-26T01:26:08;8.8;8.4;
78678;PMS5003;67994;59.334;13.528;2023-06-26T01:27:00;8.8;8.4;
78678;PMS5003;67994;59.334;13.528;2023-06-26T01:28:00;17.1;16.8;
78678;PMS5003;67994;59.334;13.528;2023-06-26T01:29:00;17.1;16.8;
78678;PMS5003;67994;59.334;13.528;2023-06-26T01:30:00;17.1;16.8;
78678;PMS5003;67994;59.334;13.528;2023-06-26T01:31:00;17.1;16.8;
78678;PMS5003;67994;59.334;13.528;2023-06-26T01:32:00;17.1;16.8;
78678;PMS5003;67994;59.334;13.528;2023-06-26T01:33:00;13.7;13.0;
78678;PMS5003;67994;59.334;13.528;2023-06-26T01:34:00;13.7;13.0;
78678;PMS5003;67994;59.334;13.528;2023-06-26T01:35:00;13.7;13.0;
78678;PMS5003;67994;59.334;13.528;2023-06-26T01:36:00;13.7;13.0;
78678;PMS5003;67994;59.334;13.528;2023-06-26T01:37:00;13.7;13.0;
78678;PMS5003;67994;59.334;13.528;2023-06-26T01:39:00;14.1;13.0;
78678;PMS5003;67994;59.334;13.528;2023-06-26T01:40:00;14.1;13.0;
78678;PMS5003;67994;59.334;13.528;2023-06-26T01:41:00;14.1;13.0;
78678;PMS5003;67994;59.334;13.528;2023-06-26T01:42:00;14.1;13.0;
78678;PMS5003;67994;59.334;13.528;2023-06-26T01:43:00;15.8;14.4;
78678;PMS5003;67994;59.334;13.528;2023-06-26T01:44:03;15.8;14.4;
78678;PMS5003;67994;59.334;13.528;2023-06-26T01:45:01;15.8;14.4;
78678;PMS5003;67994;59.334;13.528;2023-06-26T01:46:02;15.8;14.4;
78678;PMS5003;67994;59.334;13.528;2023-06-26T01:47:00;15.8;14.4;
78678;PMS5003;67994;59.334;13.528;2023-06-26T01:48:00;14.2;13.5;
78678;PMS5003;67994;59.334;13.528;2023-06-26T01:49:02;14.2;13.5;
78678;PMS5003;67994;59.334;13.528;2023-06-26T01:50:02;14.2;13.5;
78678;PMS5003;67994;59.334;13.528;2023-06-26T01:51:00;14.2;13.5;
78678;PMS5003;67994;59.334;13.528;2023-06-26T01:52:03;14.2;13.5;
78678;PMS5003;67994;59.334;13.528;2023-06-26T01:53:02;12.0;11.2;
78678;PMS5003;67994;59.334;13.528;2023-06-26T01:54:01;12.0;11.2;
78678;PMS5003;67994;59.334;13.528;2023-06-26T01:55:02;12.0;11.2;
78678;PMS5003;67994;59.334;13.528;2023-06-26T01:56:01;12.0;11.2;
78678;PMS5003;67994;59.334;13.528;2023-06-26T01:57:00;12.0;11.2;
78678;PMS5003;67994;59.334;13.528;2023-06-26T01:58:00;16.1;12.4;
78678;PMS5003;67994;59.334;13.528;2023-06-26T01:59:00;16.1;12.4;
78678;PMS5003;67994;59.334;13.528;2023-06-26T02:00:00;16.1;12.4;
78678;PMS5003;67994;59.334;13.528;2023-06-26T02:01:00;16.1;12.4;
78678;PMS5003;67994;59.334;13.528;2023-06-26T02:02:00;16.1;12.4;
78678;PMS5003;67994;59.334;13.528;2023-06-26T02:03:00;16.1;16.1;
78678;PMS5003;67994;59.334;13.528;2023-06-26T02:04:00;16.1;16.1;
78678;PMS5003;67994;59.334;13.528;2023-06-26T02:05:00;16.1;16.1;
78678;PMS5003;67994;59.334;13.528;2023-06-26T02:06:00;16.1;16.1;
78678;PMS5003;67994;59.334;13.528;2023-06-26T02:07:00;16.1;16.1;
78678;PMS5003;67994;59.334;13.528;2023-06-26T02:08:00;12.4;12.4;
78678;PMS5003;67994;59.334;13.528;2023-06-26T02:09:00;12.4;12.4;
78678;PMS5003;67994;59.334;13.528;2023-06-26T02:10:00;12.4;12.4;
78678;PMS5003;67994;59.334;13.528;2023-06-26T02:11:00;12.4;12.4;
78678;PMS5003;67994;59.334;13.528;2023-06-26T02:12:00;12.4;12.4;
78678;PMS5003;67994;59.334;13.528;2023-06-26T02:13:00;18.1;16.0;
78678;PMS5003;67994;59.334;13.528;2023-06-26T02:14:00;18.1;16.0;
78678;PMS5003;67994;59.334;13.528;2023-06-26T02:15:00;18.1;16.0;
78678;PMS5003;67994;59.334;13.528;2023-06-26T02:16:02;18.1;16.0;
78678;PMS5003;67994;59.334;13.528;2023-06-26T02:17:00;18.1;16.0;
78678;PMS5003;67994;59.334;13.528;2023-06-26T02:18:00;17.1;14.3;
78678;PMS5003;67994;59.334;13.528;2023-06-26T02:19:00;17.1;14.3;
78678;PMS5003;67994;59.334;13.528;2023-06-26T02:20:00;17.1;14.3;
78678;PMS5003;67994;59.334;13.528;2023-06-26T02:21:00;17.1;14.3;
78678;PMS5003;67994;59.334;13.528;2023-06-26T02:22:00;17.1;14.3;
78678;PMS5003;67994;59.334;13.528;2023-06-26T02:23:00;14.8;14.0;
78678;PMS5003;67994;59.334;13.528;2023-06-26T02:24:01;14.8;14.0;
78678;PMS5003;67994;59.334;13.528;2023-06-26T02:25:00;14.8;14.0;
78678;PMS5003;67994;59.334;13.528;2023-06-26T02:26:00;14.8;14.0;
78678;PMS5003;67994;59.334;13.528;2023-06-26T02:27:00;14.8;14.0;
78678;PMS5003;67994;59.334;13.528;2023-06-26T02:28:00;17.0;17.0;
78678;PMS5003;67994;59.334;13.528;2023-06-26T02:29:00;17.0;17.0;
78678;PMS5003;67994;59.334;13.528;2023-06-26T02:30:00;17.0;17.0;
78678;PMS5003;67994;59.334;13.528;2023-06-26T02:31:00;17.0;17.0;
78678;PMS5003;67994;59.334;13.528;2023-06-26T02:32:00;17.0;17.0;
78678;PMS5003;67994;59.334;13.528;2023-06-26T02:33:00;15.4;13.3;
78678;PMS5003;67994;59.334;13.528;2023-06-26T02:34:00;15.4;13.3;
78678;PMS5003;67994;59.334;13.528;2023-06-26T02:35:00;15.4;13.3;
78678;PMS5003;67994;59.334;13.528;2023-06-26T02:36:00;15.4;13.3;
78678;PMS5003;67994;59.334;13.528;2023-06-26T02:37:00;15.4;13.3;
78678;PMS5003;67994;59.334;13.528;2023-06-26T02:38:00;14.4;13.6;
78678;PMS5003;67994;59.334;13.528;2023-06-26T02:39:00;14.4;13.6;
78678;PMS5003;67994;59.334;13.528;2023-06-26T02:40:00;14.4;13.6;
78678;PMS5003;67994;59.334;13.528;2023-06-26T02:41:00;14.4;13.6;
78678;PMS5003;67994;59.334;13.528;2023-06-26T02:42:00;14.4;13.6;
78678;PMS5003;67994;59.334;13.528;2023-06-26T02:43:00;15.0;13.3;
78678;PMS5003;67994;59.334;13.528;2023-06-26T02:44:00;15.0;13.3;
78678;PMS5003;67994;59.334;13.528;2023-06-26T02:45:00;15.0;13.3;
78678;PMS5003;67994;59.334;13.528;2023-06-26T02:46:00;15.0;13.3;
78678;PMS5003;67994;59.334;13.528;2023-06-26T02:47:00;15.0;13.3;
78678;PMS5003;67994;59.334;13.528;2023-06-26T02:48:00;15.3;13.8;
78678;PMS5003;67994;59.334;13.528;2023-06-26T02:49:00;15.3;13.8;
78678;PMS5003;67994;59.334;13.528;2023-06-26T02:50:00;15.3;13.8;
78678;PMS5003;67994;59.334;13.528;2023-06-26T02:51:00;15.3;13.8;
78678;PMS5003;67994;59.334;13.528;2023-06-26T02:52:00;15.3;13.8;
78678;PMS5003;67994;59.334;13.528;2023-06-26T02:53:00;19.8;18.9;
78678;PMS5003;67994;59.334;13.528;2023-06-26T02:54:00;19.8;18.9;
78678;PMS5003;67994;59.334;13.528;2023-06-26T02:55:00;19.8;18.9;
78678;PMS5003;67994;59.334;13.528;2023-06-26T02:56:00;19.8;18.9;
78678;PMS5003;67994;59.334;13.528;2023-06-26T02:57:00;19.8;18.9;
78678;PMS5003;67994;59.334;13.528;2023-06-26T02:58:00;13.9;13.9;
78678;PMS5003;67994;59.334;13.528;2023-06-26T02:59:00;13.9;13.9;
78678;PMS5003;67994;59.334;13.528;2023-06-26T03:00:00;13.9;13.9;
78678;PMS5003;67994;59.334;13.528;2023-06-26T03:01:00;13.9;13.9;
78678;PMS5003;67994;59.334;13.528;2023-06-26T03:02:00;13.9;13.9;
78678;PMS5003;67994;59.334;13.528;2023-06-26T03:03:00;15.4;13.8;
78678;PMS5003;67994;59.334;13.528;2023-06-26T03:04:00;15.4;13.8;
78678;PMS5003;67994;59.334;13.528;2023-06-26T03:05:00;15.4;13.8;
78678;PMS5003;67994;59.334;13.528;2023-06-26T03:06:00;15.4;13.8;
78678;PMS5003;67994;59.334;13.528;2023-06-26T03:07:00;15.4;13.8;
78678;PMS5003;67994;59.334;13.528;2023-06-26T03:08:00;12.8;11.8;
78678;PMS5003;67994;59.334;13.528;2023-06-26T03:09:00;12.8;11.8;
78678;PMS5003;67994;59.334;13.528;2023-06-26T03:10:00;12.8;11.8;
78678;PMS5003;67994;59.334;13.528;2023-06-26T03:11:00;12.8;11.8;
78678;PMS5003;67994;59.334;13.528;2023-06-26T03:12:00;12.8;11.8;
78678;PMS5003;67994;59.334;13.528;2023-06-26T03:13:00;14.0;13.3;
78678;PMS5003;67994;59.334;13.528;2023-06-26T03:14:00;14.0;13.3;
78678;PMS5003;67994;59.334;13.528;2023-06-26T03:15:00;14.0;13.3;
78678;PMS5003;67994;59.334;13.528;2023-06-26T03:16:00;14.0;13.3;
78678;PMS5003;67994;59.334;13.528;2023-06-26T03:17:00;14.0;13.3;
78678;PMS5003;67994;59.334;13.528;2023-06-26T03:18:00;17.9;15.2;
78678;PMS5003;67994;59.334;13.528;2023-06-26T03:19:00;17.9;15.2;
78678;PMS5003;67994;59.334;13.528;2023-06-26T03:20:00;17.9;15.2;
78678;PMS5003;67994;59.334;13.528;2023-06-26T03:21:00;17.9;15.2;
78678;PMS5003;67994;59.334;13.528;2023-06-26T03:22:00;17.9;15.2;
78678;PMS5003;67994;59.334;13.528;2023-06-26T03:23:00;14.1;13.4;
78678;PMS5003;67994;59.334;13.528;2023-06-26T03:24:00;14.1;13.4;
78678;PMS5003;67994;59.334;13.528;2023-06-26T03:25:01;14.1;13.4;
78678;PMS5003;67994;59.334;13.528;2023-06-26T03:26:00;14.1;13.4;
78678;PMS5003;67994;59.334;13.528;2023-06-26T03:27:00;14.1;13.4;
78678;PMS5003;67994;59.334;13.528;2023-06-26T03:28:00;15.6;14.9;
78678;PMS5003;67994;59.334;13.528;2023-06-26T03:29:00;15.6;14.9;
78678;PMS5003;67994;59.334;13.528;2023-06-26T03:30:00;15.6;14.9;
78678;PMS5003;67994;59.334;13.528;2023-06-26T03:31:00;15.6;14.9;
78678;PMS5003;67994;59.334;13.528;2023-06-26T03:32:00;15.6;14.9;
78678;PMS5003;67994;59.334;13.528;2023-06-26T03:33:00;10.5;10.5;
78678;PMS5003;67994;59.334;13.528;2023-06-26T03:34:00;10.5;10.5;
78678;PMS5003;67994;59.334;13.528;2023-06-26T03:35:00;10.5;10.5;
78678;PMS5003;67994;59.334;13.528;2023-06-26T03:36:00;10.5;10.5;
78678;PMS5003;67994;59.334;13.528;2023-06-26T03:37:00;10.5;10.5;
78678;PMS5003;67994;59.334;13.528;2023-06-26T03:38:00;12.2;12.2;
78678;PMS5003;67994;59.334;13.528;2023-06-26T03:39:00;12.2;12.2;
78678;PMS5003;67994;59.334;13.528;2023-06-26T03:40:00;12.2;12.2;
78678;PMS5003;67994;59.334;13.528;2023-06-26T03:41:00;12.2;12.2;
78678;PMS5003;67994;59.334;13.528;2023-06-26T03:42:00;12.2;12.2;
78678;PMS5003;67994;59.334;13.528;2023-06-26T03:43:00;12.8;12.8;
78678;PMS5003;67994;59.334;13.528;2023-06-26T03:44:00;12.8;12.8;
78678;PMS5003;67994;59.334;13.528;2023-06-26T03:45:00;12.8;12.8;
78678;PMS5003;67994;59.334;13.528;2023-06-26T03:46:00;12.8;12.8;
78678;PMS5003;67994;59.334;13.528;2023-06-26T03:47:00;12.8;12.8;
78678;PMS5003;67994;59.334;13.528;2023-06-26T03:48:00;12.4;12.4;
78678;PMS5003;67994;59.334;13.528;2023-06-26T03:49:00;12.4;12.4;
78678;PMS5003;67994;59.334;13.528;2023-06-26T03:50:00;12.4;12.4;
78678;PMS5003;67994;59.334;13.528;2023-06-26T03:51:00;12.4;12.4;
78678;PMS5003;67994;59.334;13.528;2023-06-26T03:52:00;12.4;12.4;
78678;PMS5003;67994;59.334;13.528;2023-06-26T03:53:00;13.1;13.1;
78678;PMS5003;67994;59.334;13.528;2023-06-26T03:54:00;13.1;13.1;
78678;PMS5003;67994;59.334;13.528;2023-06-26T03:55:00;13.1;13.1;
78678;PMS5003;67994;59.334;13.528;2023-06-26T03:56:00;13.1;13.1;
78678;PMS5003;67994;59.334;13.528;2023-06-26T03:57:00;13.1;13.1;
78678;PMS5003;67994;59.334;13.528;2023-06-26T03:58:00;15.4;15.0;
78678;PMS5003;67994;59.334;13.528;2023-06-26T03:59:00;15.4;15.0;
78678;PMS5003;67994;59.334;13.528;2023-06-26T04:00:00;15.4;15.0;
78678;PMS5003;67994;59.334;13.528;2023-06-26T04:01:00;15.4;15.0;
78678;PMS5003;67994;59.334;13.528;2023-06-26T04:02:00;15.4;15.0;
78678;PMS5003;67994;59.334;13.528;2023-06-26T04:03:00;13.6;12.4;
78678;PMS5003;67994;59.334;13.528;2023-06-26T04:04:00;13.6;12.4;
78678;PMS5003;67994;59.334;13.528;2023-06-26T04:05:00;13.6;12.4;
78678;PMS5003;67994;59.334;13.528;2023-06-26T04:06:00;13.6;12.4;
78678;PMS5003;67994;59.334;13.528;2023-06-26T04:07:00;13.6;12.4;
78678;PMS5003;67994;59.334;13.528;2023-06-26T04:08:00;16.2;13.3;
78678;PMS5003;67994;59.334;13.528;2023-06-26T04:09:00;16.2;13.3;
78678;PMS5003;67994;59.334;13.528;2023-06-26T04:10:00;16.2;13.3;
78678;PMS5003;67994;59.334;13.528;2023-06-26T04:11:00;16.2;13.3;
78678;PMS5003;67994;59.334;13.528;2023-06-26T04:12:00;16.2;13.3;
78678;PMS5003;67994;59.334;13.528;2023-06-26T04:13:00;15.0;14.9;
78678;PMS5003;67994;59.334;13.528;2023-06-26T04:14:00;15.0;14.9;
78678;PMS5003;67994;59.334;13.528;2023-06-26T04:15:00;15.0;14.9;
78678;PMS5003;67994;59.334;13.528;2023-06-26T04:16:00;15.0;14.9;
78678;PMS5003;67994;59.334;13.528;2023-06-26T04:17:00;15.0;14.9;
78678;PMS5003;67994;59.334;13.528;2023-06-26T04:18:00;13.0;12.4;
78678;PMS5003;67994;59.334;13.528;2023-06-26T04:19:00;13.0;12.4;
78678;PMS5003;67994;59.334;13.528;2023-06-26T04:20:00;13.0;12.4;
78678;PMS5003;67994;59.334;13.528;2023-06-26T04:21:04;13.0;12.4;
78678;PMS5003;67994;59.334;13.528;2023-06-26T04:22:00;13.0;12.4;
78678;PMS5003;67994;59.334;13.528;2023-06-26T04:23:00;12.6;12.6;
78678;PMS5003;67994;59.334;13.528;2023-06-26T04:24:00;12.6;12.6;
78678;PMS5003;67994;59.334;13.528;2023-06-26T04:25:01;12.6;12.6;
78678;PMS5003;67994;59.334;13.528;2023-06-26T04:26:00;12.6;12.6;
78678;PMS5003;67994;59.334;13.528;2023-06-26T04:27:00;12.6;12.6;
78678;PMS5003;67994;59.334;13.528;2023-06-26T04:28:00;6.5;6.5;
78678;PMS5003;67994;59.334;13.528;2023-06-26T04:29:00;6.5;6.5;
78678;PMS5003;67994;59.334;13.528;2023-06-26T04:30:00;6.5;6.5;
78678;PMS5003;67994;59.334;13.528;2023-06-26T04:31:00;6.5;6.5;
78678;PMS5003;67994;59.334;13.528;2023-06-26T04:32:00;6.5;6.5;
78678;PMS5003;67994;59.334;13.528;2023-06-26T04:33:00;13.0;11.0;
78678;PMS5003;67994;59.334;13.528;2023-06-26T04:34:00;13.0;11.0;
78678;PMS5003;67994;59.334;13.528;2023-06-26T04:35:00;13.0;11.0;
78678;PMS5003;67994;59.334;13.528;2023-06-26T04:36:00;13.0;11.0;
78678;PMS5003;67994;59.334;13.528;2023-06-26T04:37:00;13.0;11.0;
78678;PMS5003;67994;59.334;13.528;2023-06-26T04:38:00;12.3;11.4;
78678;PMS5003;67994;59.334;13.528;2023-06-26T04:39:00;12.3;11.4;
78678;PMS5003;67994;59.334;13.528;2023-06-26T04:40:00;12.3;11.4;
78678;PMS5003;67994;59.334;13.528;2023-06-26T04:41:00;12.3;11.4;
78678;PMS5003;67994;59.334;13.528;2023-06-26T04:42:00;12.3;11.4;
78678;PMS5003;67994;59.334;13.528;2023-06-26T04:43:00;15.0;14.9;
78678;PMS5003;67994;59.334;13.528;2023-06-26T04:44:00;15.0;14.9;
78678;PMS5003;67994;59.334;13.528;2023-06-26T04:45:00;15.0;14.9;
78678;PMS5003;67994;59.334;13.528;2023-06-26T04:46:01;15.0;14.9;
78678;PMS5003;67994;59.334;13.528;2023-06-26T04:47:00;15.0;14.9;
78678;PMS5003;67994;59.334;13.528;2023-06-26T04:48:00;11.4;10.4;
78678;PMS5003;67994;59.334;13.528;2023-06-26T04:49:00;11.4;10.4;
78678;PMS5003;67994;59.334;13.528;2023-06-26T04:50:00;11.4;10.4;
78678;PMS5003;67994;59.334;13.528;2023-06-26T04:51:00;11.4;10.4;
78678;PMS5003;67994;59.334;13.528;2023-06-26T04:52:00;11.4;10.4;
78678;PMS5003;67994;59.334;13.528;2023-06-26T04:53:00;10.3;9.1;
78678;PMS5003;67994;59.334;13.528;2023-06-26T04:54:00;10.3;9.1;
78678;PMS5003;67994;59.334;13.528;2023-06-26T04:55:00;10.3;9.1;
78678;PMS5003;67994;59.334;13.528;2023-06-26T04:56:00;10.3;9.1;
78678;PMS5003;67994;59.334;13.528;2023-06-26T04:57:00;10.3;9.1;
78678;PMS5003;67994;59.334;13.528;2023-06-26T04:58:00;11.3;11.3;
78678;PMS5003;67994;59.334;13.528;2023-06-26T04:59:00;11.3;11.3;
78678;PMS5003;67994;59.334;13.528;2023-06-26T05:00:00;11.3;11.3;
78678;PMS5003;67994;59.334;13.528;2023-06-26T05:01:00;11.3;11.3;
78678;PMS5003;67994;59.334;13.528;2023-06-26T05:02:00;11.3;11.3;
78678;PMS5003;67994;59.334;13.528;2023-06-26T05:03:00;11.0;10.6;
78678;PMS5003;67994;59.334;13.528;2023-06-26T05:04:00;11.0;10.6;
78678;PMS5003;67994;59.334;13.528;2023-06-26T05:05:00;11.0;10.6;
78678;PMS5003;67994;59.334;13.528;2023-06-26T05:06:00;11.0;10.6;
78678;PMS5003;67994;59.334;13.528;2023-06-26T05:07:00;11.0;10.6;
78678;PMS5003;67994;59.334;13.528;2023-06-26T05:08:12;10.1;10.1;
78678;PMS5003;67994;59.334;13.528;2023-06-26T05:09:00;10.1;10.1;
78678;PMS5003;67994;59.334;13.528;2023-06-26T05:10:00;10.1;10.1;
78678;PMS5003;67994;59.334;13.528;2023-06-26T05:11:00;10.1;10.1;
78678;PMS5003;67994;59.334;13.528;2023-06-26T05:12:00;10.1;10.1;
78678;PMS5003;67994;59.334;13.528;2023-06-26T05:13:00;11.0;8.7;
78678;PMS5003;67994;59.334;13.528;2023-06-26T05:14:00;11.0;8.7;
78678;PMS5003;67994;59.334;13.528;2023-06-26T05:15:00;11.0;8.7;
78678;PMS5003;67994;59.334;13.528;2023-06-26T05:16:00;11.0;8.7;
78678;PMS5003;67994;59.334;13.528;2023-06-26T05:17:00;11.0;8.7;
78678;PMS5003;67994;59.334;13.528;2023-06-26T05:18:00;14.1;11.8;
78678;PMS5003;67994;59.334;13.528;2023-06-26T05:19:00;14.1;11.8;
78678;PMS5003;67994;59.334;13.528;2023-06-26T05:20:00;14.1;11.8;
78678;PMS5003;67994;59.334;13.528;2023-06-26T05:21:00;14.1;11.8;
78678;PMS5003;67994;59.334;13.528;2023-06-26T05:22:01;14.1;11.8;
78678;PMS5003;67994;59.334;13.528;2023-06-26T05:23:00;10.8;10.8;
78678;PMS5003;67994;59.334;13.528;2023-06-26T05:24:00;10.8;10.8;
78678;PMS5003;67994;59.334;13.528;2023-06-26T05:25:00;10.8;10.8;
78678;PMS5003;67994;59.334;13.528;2023-06-26T05:26:00;10.8;10.8;
78678;PMS5003;67994;59.334;13.528;2023-06-26T05:27:00;10.8;10.8;
78678;PMS5003;67994;59.334;13.528;2023-06-26T05:28:00;11.9;10.8;
78678;PMS5003;67994;59.334;13.528;2023-06-26T05:29:00;11.9;10.8;
78678;PMS5003;67994;59.334;13.528;2023-06-26T05:30:00;11.9;10.8;
78678;PMS5003;67994;59.334;13.528;2023-06-26T05:31:00;11.9;10.8;
78678;PMS5003;67994;59.334;13.528;2023-06-26T05:32:00;11.9;10.8;
78678;PMS5003;67994;59.334;13.528;2023-06-26T05:33:00;11.3;11.3;
78678;PMS5003;67994;59.334;13.528;2023-06-26T05:34:00;11.3;11.3;
78678;PMS5003;67994;59.334;13.528;2023-06-26T05:35:00;11.3;11.3;
78678;PMS5003;67994;59.334;13.528;2023-06-26T05:36:00;11.3;11.3;
78678;PMS5003;67994;59.334;13.528;2023-06-26T05:37:00;11.3;11.3;
78678;PMS5003;67994;59.334;13.528;2023-06-26T05:38:00;9.4;9.4;
78678;PMS5003;67994;59.334;13.528;2023-06-26T05:39:00;9.4;9.4;
78678;PMS5003;67994;59.334;13.528;2023-06-26T05:40:00;9.4;9.4;
78678;PMS5003;67994;59.334;13.528;2023-06-26T05:41:00;9.4;9.4;
78678;PMS5003;67994;59.334;13.528;2023-06-26T05:42:00;9.4;9.4;
78678;PMS5003;67994;59.334;13.528;2023-06-26T05:43:00;9.1;6.8;
78678;PMS5003;67994;59.334;13.528;2023-06-26T05:44:00;9.1;6.8;
78678;PMS5003;67994;59.334;13.528;2023-06-26T05:45:00;9.1;6.8;
78678;PMS5003;67994;59.334;13.528;2023-06-26T05:46:00;9.1;6.8;
78678;PMS5003;67994;59.334;13.528;2023-06-26T05:47:00;9.1;6.8;
78678;PMS5003;67994;59.334;13.528;2023-06-26T05:48:00;11.1;11.1;
78678;PMS5003;67994;59.334;13.528;2023-06-26T05:49:00;11.1;11.1;
78678;PMS5003;67994;59.334;13.528;2023-06-26T05:50:00;11.1;11.1;
78678;PMS5003;67994;59.334;13.528;2023-06-26T05:51:00;11.1;11.1;
78678;PMS5003;67994;59.334;13.528;2023-06-26T05:52:00;11.1;11.1;
78678;PMS5003;67994;59.334;13.528;2023-06-26T05:53:00;9.4;9.4;
78678;PMS5003;67994;59.334;13.528;2023-06-26T05:54:00;9.4;9.4;
78678;PMS5003;67994;59.334;13.528;2023-06-26T05:55:00;9.4;9.4;
78678;PMS5003;67994;59.334;13.528;2023-06-26T05:56:00;9.4;9.4;
78678;PMS5003;67994;59.334;13.528;2023-06-26T05:57:12;9.4;9.4;
78678;PMS5003;67994;59.334;13.528;2023-06-26T05:58:02;9.7;9.7;
78678;PMS5003;67994;59.334;13.528;2023-06-26T05:59:00;9.7;9.7;
78678;PMS5003;67994;59.334;13.528;2023-06-26T06:00:00;9.7;9.7;
78678;PMS5003;67994;59.334;13.528;2023-06-26T06:01:00;9.7;9.7;
78678;PMS5003;67994;59.334;13.528;2023-06-26T06:02:00;9.7;9.7;
78678;PMS5003;67994;59.334;13.528;2023-06-26T06:03:00;7.5;7.5;
78678;PMS5003;67994;59.334;13.528;2023-06-26T06:04:00;7.5;7.5;
78678;PMS5003;67994;59.334;13.528;2023-06-26T06:05:00;7.5;7.5;
78678;PMS5003;67994;59.334;13.528;2023-06-26T06:06:00;7.5;7.5;
78678;PMS5003;67994;59.334;13.528;2023-06-26T06:07:00;7.5;7.5;
78678;PMS5003;67994;59.334;13.528;2023-06-26T06:08:00;9.4;8.4;
78678;PMS5003;67994;59.334;13.528;2023-06-26T06:09:00;9.4;8.4;
78678;PMS5003;67994;59.334;13.528;2023-06-26T06:10:00;9.4;8.4;